createdAt,value
2023-01-13T00:00:24.321Z,28.30
2023-01-13T00:02:52.145Z,26.87
2023-01-13T00:05:20.228Z,28.70
2023-01-13T00:07:49.222Z,27.40
2023-01-13T00:10:17.692Z,27.67
2023-01-13T00:12:45.513Z,24.50
2023-01-13T00:15:13.398Z,27.90
2023-01-13T00:17:42.633Z,28.20
2023-01-13T00:20:11.757Z,26.53
2023-01-13T00:22:39.584Z,27.40
2023-01-13T00:25:08.121Z,26.23
2023-01-13T00:27:35.936Z,26.93
2023-01-13T00:30:03.816Z,28.17
2023-01-13T00:32:31.792Z,29.07
2023-01-13T00:35:00.986Z,29.13
2023-01-13T00:37:28.800Z,27.87
2023-01-13T00:39:57.791Z,28.37
2023-01-13T00:42:43.214Z,28.63
2023-01-13T00:45:11.799Z,28.33
2023-01-13T00:47:39.628Z,26.60
2023-01-13T00:50:10.292Z,26.67
2023-01-13T00:52:38.312Z,25.30
2023-01-13T00:55:07.532Z,26.77
2023-01-13T00:57:35.571Z,25.60
2023-01-13T01:00:04.636Z,27.00
2023-01-13T01:02:32.495Z,23.10
2023-01-13T01:05:00.960Z,25.40
2023-01-13T01:07:30.110Z,25.77
2023-01-13T01:09:57.918Z,25.60
2023-01-13T01:12:25.851Z,25.03
2023-01-13T01:14:53.675Z,25.83
2023-01-13T01:17:21.497Z,26.37
2023-01-13T01:19:49.272Z,27.93
2023-01-13T01:22:17.114Z,26.80
2023-01-13T01:24:48.211Z,25.37
2023-01-13T01:27:16.022Z,25.93
2023-01-13T01:29:43.853Z,24.03
2023-01-13T01:32:11.644Z,26.30
2023-01-13T01:34:40.019Z,25.80
2023-01-13T01:37:07.846Z,25.70
2023-01-13T01:39:35.842Z,24.33
2023-01-13T01:42:22.590Z,25.37
2023-01-13T01:45:03.798Z,24.30
2023-01-13T01:47:33.352Z,23.93
2023-01-13T01:50:04.178Z,25.53
2023-01-13T01:52:35.461Z,24.33
2023-01-13T01:55:07.461Z,22.60
2023-01-13T01:57:43.666Z,24.80
2023-01-13T02:00:12.762Z,25.27
2023-01-13T02:02:43.924Z,25.70
2023-01-13T02:05:12.068Z,25.43
2023-01-13T02:07:42.095Z,23.77
2023-01-13T02:10:12.718Z,26.50
2023-01-13T02:12:45.211Z,24.40
2023-01-13T02:15:15.707Z,23.83
2023-01-13T02:18:04.450Z,25.03
2023-01-13T02:20:53.318Z,25.03
2023-01-13T02:24:12.641Z,25.60
2023-01-13T02:27:10.852Z,24.73
2023-01-13T02:30:18.780Z,24.67
2023-01-13T02:32:56.930Z,25.80
2023-01-13T02:35:31.189Z,25.20
2023-01-13T02:38:01.700Z,23.37
2023-01-13T02:40:36.993Z,26.50
2023-01-13T02:43:29.289Z,25.30
2023-01-13T02:46:06.190Z,23.27
2023-01-13T02:48:36.472Z,25.03
2023-01-13T02:51:08.261Z,25.30
2023-01-13T02:53:40.401Z,22.83
2023-01-13T02:56:10.846Z,24.07
2023-01-13T02:58:41.867Z,25.00
2023-01-13T03:01:11.270Z,22.57
2023-01-13T03:03:39.165Z,23.20
2023-01-13T03:06:23.211Z,21.60
2023-01-13T03:08:55.764Z,24.83
2023-01-13T03:11:26.239Z,20.67
2023-01-13T03:14:04.641Z,20.07
2023-01-13T03:16:43.796Z,20.20
2023-01-13T03:19:24.766Z,17.83
2023-01-13T03:21:56.842Z,18.13
2023-01-13T03:24:31.368Z,15.87
2023-01-13T03:27:05.511Z,16.17
2023-01-13T03:29:37.334Z,17.30
2023-01-13T03:32:14.744Z,15.97
2023-01-13T03:34:47.650Z,15.50
2023-01-13T03:37:18.019Z,16.87
2023-01-13T03:39:51.449Z,15.90
2023-01-13T03:42:23.035Z,17.00
2023-01-13T03:44:55.982Z,15.00
2023-01-13T03:47:31.677Z,14.90
2023-01-13T03:50:05.093Z,15.63
2023-01-13T03:52:38.057Z,15.27
2023-01-13T03:55:10.429Z,14.60
2023-01-13T03:57:47.693Z,15.30
2023-01-13T04:00:17.156Z,17.80
2023-01-13T04:02:51.429Z,16.70
2023-01-13T04:05:19.966Z,15.70
2023-01-13T04:07:53.906Z,14.67
2023-01-13T04:10:30.032Z,14.37
2023-01-13T04:13:02.641Z,15.37
2023-01-13T04:15:34.788Z,14.10
2023-01-13T04:18:11.635Z,13.70
2023-01-13T04:20:39.999Z,15.47
2023-01-13T04:23:08.818Z,13.63
2023-01-13T04:25:36.886Z,14.33
2023-01-13T04:28:05.350Z,13.33
2023-01-13T04:30:33.422Z,13.70
2023-01-13T04:33:01.341Z,11.80
2023-01-13T04:35:30.907Z,15.07
2023-01-13T04:38:02.763Z,17.60
2023-01-13T04:40:30.647Z,17.80
2023-01-13T04:42:58.441Z,17.50
2023-01-13T04:45:26.364Z,16.97
2023-01-13T04:47:54.442Z,17.07
2023-01-13T04:50:22.771Z,18.70
2023-01-13T04:52:53.060Z,17.33
2023-01-13T04:55:22.604Z,16.80
2023-01-13T04:57:50.580Z,18.10
2023-01-13T05:00:20.861Z,18.33
2023-01-13T05:02:50.774Z,18.13
2023-01-13T05:05:19.193Z,20.20
2023-01-13T05:07:47.421Z,19.37
2023-01-13T05:10:17.357Z,18.20
2023-01-13T05:13:03.027Z,20.07
2023-01-13T05:15:48.599Z,20.07
2023-01-13T05:18:17.400Z,19.80
2023-01-13T05:20:45.377Z,17.97
2023-01-13T05:23:31.101Z,19.60
2023-01-13T05:26:00.422Z,19.40
2023-01-13T05:28:33.140Z,19.73
2023-01-13T05:31:01.774Z,19.43
2023-01-13T05:33:29.625Z,18.00
2023-01-13T05:35:57.430Z,21.43
2023-01-13T05:38:25.225Z,18.83
2023-01-13T05:41:10.737Z,17.57
2023-01-13T05:43:40.223Z,17.40
2023-01-13T05:46:10.237Z,19.70
2023-01-13T05:48:40.130Z,18.07
2023-01-13T05:51:09.588Z,18.07
2023-01-13T05:53:37.813Z,17.07
2023-01-13T05:56:07.007Z,18.03
2023-01-13T05:58:35.350Z,18.30
2023-01-13T06:01:07.192Z,23.97
2023-01-13T06:03:35.415Z,17.70
2023-01-13T06:06:03.995Z,19.07
2023-01-13T06:08:32.756Z,18.37
2023-01-13T06:11:00.633Z,17.63
2023-01-13T06:13:28.826Z,20.90
2023-01-13T06:15:58.706Z,18.67
2023-01-13T06:18:29.076Z,19.50
2023-01-13T06:20:57.340Z,21.03
2023-01-13T06:23:25.623Z,18.90
2023-01-13T06:26:01.854Z,16.00
2023-01-13T06:28:29.843Z,15.30
2023-01-13T06:31:00.866Z,15.37
2023-01-13T06:33:34.079Z,16.37
2023-01-13T06:36:08.102Z,17.23
2023-01-13T06:38:41.407Z,17.40
2023-01-13T06:41:09.636Z,18.23
2023-01-13T06:43:38.012Z,16.30
2023-01-13T06:46:06.233Z,16.23
2023-01-13T06:48:36.111Z,16.77
2023-01-13T06:51:04.900Z,17.47
2023-01-13T06:53:33.058Z,17.70
2023-01-13T06:56:01.011Z,17.63
2023-01-13T06:58:29.049Z,18.20
2023-01-13T07:01:01.271Z,22.13
2023-01-13T07:03:29.253Z,22.17
2023-01-13T07:05:58.758Z,20.00
2023-01-13T07:08:26.675Z,19.13
2023-01-13T07:10:55.195Z,19.30
2023-01-13T07:13:40.671Z,19.43
2023-01-13T07:16:10.180Z,18.77
2023-01-13T07:18:38.226Z,20.10
2023-01-13T07:21:09.794Z,19.20
2023-01-13T07:23:39.479Z,19.20
2023-01-13T07:26:08.849Z,16.93
2023-01-13T07:28:37.187Z,18.97
2023-01-13T07:31:05.181Z,19.27
2023-01-13T07:33:33.476Z,19.30
2023-01-13T07:36:03.595Z,17.13
2023-01-13T07:38:34.003Z,18.50
2023-01-13T07:41:23.893Z,17.40
2023-01-13T07:43:51.808Z,18.30
2023-01-13T07:46:20.144Z,18.30
2023-01-13T07:48:48.930Z,17.00
2023-01-13T07:51:17.230Z,17.53
2023-01-13T07:53:46.568Z,17.57
2023-01-13T07:56:14.549Z,16.53
2023-01-13T07:58:42.809Z,18.10
2023-01-13T08:01:12.177Z,17.73
2023-01-13T08:03:40.675Z,18.30
2023-01-13T08:06:09.092Z,28.40
2023-01-13T08:08:37.632Z,22.10
2023-01-13T08:11:09.161Z,22.40
2023-01-13T08:13:37.548Z,24.77
2023-01-13T08:16:07.987Z,25.03
2023-01-13T08:18:38.082Z,23.70
2023-01-13T08:21:07.913Z,25.17
2023-01-13T08:23:35.883Z,25.30
2023-01-13T08:26:05.315Z,28.03
2023-01-13T08:28:34.723Z,28.93
2023-01-13T08:31:04.484Z,22.93
2023-01-13T08:33:32.924Z,20.70
2023-01-13T08:36:04.621Z,20.70
2023-01-13T08:38:32.602Z,21.37
2023-01-13T08:41:00.409Z,20.37
2023-01-13T08:43:28.676Z,20.53
2023-01-13T08:46:04.655Z,19.57
2023-01-13T08:48:33.273Z,20.00
2023-01-13T08:51:06.696Z,20.30
2023-01-13T08:53:34.868Z,22.53
2023-01-13T08:56:02.752Z,24.97
2023-01-13T08:58:30.678Z,22.40
2023-01-13T09:00:58.761Z,21.20
2023-01-13T09:03:28.103Z,18.60
2023-01-13T09:05:56.002Z,18.30
2023-01-13T09:08:24.574Z,18.43
2023-01-13T09:10:52.626Z,18.83
2023-01-13T09:13:21.823Z,18.57
2023-01-13T09:15:49.755Z,18.03
2023-01-13T09:18:17.671Z,17.90
2023-01-13T09:20:46.834Z,19.13
2023-01-13T09:23:14.723Z,18.73
2023-01-13T09:25:42.527Z,20.10
2023-01-13T09:28:10.442Z,18.17
2023-01-13T09:30:38.806Z,18.83
2023-01-13T09:33:24.128Z,19.53
2023-01-13T09:35:53.494Z,20.20
2023-01-13T09:38:22.429Z,20.47
2023-01-13T09:40:50.932Z,20.67
2023-01-13T09:43:40.177Z,21.30
2023-01-13T09:46:36.508Z,22.77
2023-01-13T09:49:04.796Z,18.83
2023-01-13T09:51:41.741Z,19.77
2023-01-13T09:54:17.258Z,19.80
2023-01-13T09:56:45.194Z,19.80
2023-01-13T09:59:13.437Z,19.90
2023-01-13T10:01:51.763Z,17.90
2023-01-13T10:04:19.878Z,18.53
2023-01-13T10:06:52.879Z,18.90
2023-01-13T10:09:25.266Z,20.03
2023-01-13T10:12:14.355Z,18.17
2023-01-13T10:14:45.862Z,17.93
2023-01-13T10:17:24.950Z,18.63
2023-01-13T10:19:58.689Z,17.90
2023-01-13T10:22:45.576Z,20.33
2023-01-13T10:25:28.979Z,18.00
2023-01-13T10:28:04.292Z,16.67
2023-01-13T10:30:39.029Z,15.40
2023-01-13T10:33:12.511Z,15.07
2023-01-13T10:35:52.741Z,16.43
2023-01-13T10:38:25.105Z,14.23
2023-01-13T10:40:55.249Z,15.83
2023-01-13T10:43:23.467Z,14.30
2023-01-13T10:46:00.557Z,13.93
2023-01-13T10:48:38.592Z,13.20
2023-01-13T10:51:20.758Z,13.60
2023-01-13T10:53:58.062Z,13.97
2023-01-13T10:56:28.948Z,13.47
2023-01-13T10:59:16.715Z,13.83
2023-01-13T11:01:57.923Z,14.50
2023-01-13T11:04:31.491Z,14.97
2023-01-13T11:07:00.708Z,14.20
2023-01-13T11:09:31.745Z,13.27
2023-01-13T11:12:00.299Z,15.10
2023-01-13T11:14:39.762Z,14.10
2023-01-13T11:17:27.033Z,12.60
2023-01-13T11:20:00.444Z,12.33
2023-01-13T11:22:33.895Z,14.13
2023-01-13T11:25:05.746Z,13.67
2023-01-13T11:27:42.399Z,13.70
2023-01-13T11:30:21.868Z,14.70
2023-01-13T11:33:01.981Z,13.97
2023-01-13T11:35:32.466Z,13.50
2023-01-13T11:38:07.535Z,14.97
2023-01-13T11:40:42.190Z,14.33
2023-01-13T11:43:18.578Z,14.43
2023-01-13T11:45:51.566Z,13.97
2023-01-13T11:48:23.769Z,14.37
2023-01-13T11:50:59.266Z,13.47
2023-01-13T11:53:48.190Z,14.00
2023-01-13T11:56:39.011Z,14.43
2023-01-13T11:59:26.063Z,10.90
2023-01-13T12:02:05.019Z,9.73
2023-01-13T12:04:42.140Z,10.37
2023-01-13T12:07:18.403Z,9.80
2023-01-13T12:10:03.398Z,9.57
2023-01-13T12:12:47.426Z,9.83
2023-01-13T12:15:57.191Z,10.20
2023-01-13T12:18:50.730Z,9.97
2023-01-13T12:21:23.854Z,9.57
2023-01-13T12:24:01.265Z,9.97
2023-01-13T12:26:33.733Z,10.37
2023-01-13T12:29:07.596Z,10.37
2023-01-13T12:31:38.282Z,13.03
2023-01-13T12:34:23.529Z,13.40
2023-01-13T12:37:02.739Z,10.33
2023-01-13T12:39:43.964Z,10.00
2023-01-13T12:42:36.759Z,10.90
2023-01-13T12:45:22.794Z,11.27
2023-01-13T12:47:50.769Z,10.73
2023-01-13T12:50:40.749Z,10.70
2023-01-13T12:53:32.500Z,12.70
2023-01-13T12:56:36.753Z,11.60
2023-01-13T12:59:48.895Z,12.30
2023-01-13T13:02:35.919Z,11.70
2023-01-13T13:05:39.480Z,12.57
2023-01-13T13:08:16.094Z,10.50
2023-01-13T13:10:56.394Z,11.60
2023-01-13T13:13:42.746Z,10.47
2023-01-13T13:16:40.444Z,10.70
2023-01-13T13:19:44.989Z,10.50
2023-01-13T13:22:43.939Z,10.70
2023-01-13T13:25:22.815Z,10.53
2023-01-13T13:28:03.042Z,11.60
2023-01-13T13:30:34.900Z,11.80
2023-01-13T13:33:16.539Z,10.77
2023-01-13T13:36:05.889Z,11.37
2023-01-13T13:39:08.584Z,10.63
2023-01-13T13:41:55.341Z,14.30
2023-01-13T13:44:58.388Z,11.00
2023-01-13T13:47:26.332Z,11.10
2023-01-13T13:49:55.486Z,10.50
2023-01-13T13:52:32.566Z,11.30
2023-01-13T13:55:08.813Z,10.60
2023-01-13T13:57:42.441Z,11.70
2023-01-13T14:00:22.937Z,11.20
2023-01-13T14:02:53.143Z,12.87
2023-01-13T14:05:23.917Z,11.60
2023-01-13T14:08:00.799Z,11.53
2023-01-13T14:10:35.813Z,13.00
2023-01-13T14:13:15.307Z,11.37
2023-01-13T14:15:43.449Z,11.60
2023-01-13T14:18:14.424Z,11.50
2023-01-13T14:20:42.906Z,12.53
2023-01-13T14:23:17.949Z,12.60
2023-01-13T14:25:48.916Z,12.93
2023-01-13T14:28:25.121Z,14.00
2023-01-13T14:30:54.184Z,12.27
2023-01-13T14:33:35.256Z,12.83
2023-01-13T14:36:15.569Z,12.47
2023-01-13T14:38:46.134Z,12.33
2023-01-13T14:41:26.475Z,11.40
2023-01-13T14:43:58.408Z,11.40
2023-01-13T14:46:36.866Z,11.80
2023-01-13T14:49:04.793Z,9.27
2023-01-13T14:51:32.958Z,10.47
2023-01-13T14:54:02.486Z,11.57
2023-01-13T14:56:47.260Z,11.97
2023-01-13T14:59:43.392Z,11.63
2023-01-13T15:02:48.005Z,11.73
2023-01-13T15:05:47.428Z,11.73
2023-01-13T15:08:40.723Z,13.30
2023-01-13T15:11:21.929Z,11.57
2023-01-13T15:13:56.730Z,12.17
2023-01-13T15:16:25.986Z,12.70
2023-01-13T15:18:54.794Z,13.07
2023-01-13T15:21:23.248Z,14.03
2023-01-13T15:23:51.287Z,13.73
2023-01-13T15:26:23.700Z,11.53
2023-01-13T15:28:53.045Z,13.10
2023-01-13T15:31:21.728Z,12.33
2023-01-13T15:33:50.331Z,12.40
2023-01-13T15:36:29.802Z,46.53
2023-01-13T15:38:59.172Z,28.03
2023-01-13T15:41:46.183Z,14.97
2023-01-13T15:44:35.881Z,14.80
2023-01-13T15:47:07.572Z,13.00
2023-01-13T15:49:40.201Z,13.80
2023-01-13T15:52:19.959Z,12.60
2023-01-13T15:54:48.097Z,13.40
2023-01-13T15:57:23.159Z,13.40
2023-01-13T15:59:52.714Z,13.70
2023-01-13T16:02:22.497Z,13.90
2023-01-13T16:04:51.221Z,13.97
2023-01-13T16:07:20.128Z,13.17
2023-01-13T16:09:48.229Z,11.87
2023-01-13T16:12:16.186Z,13.47
2023-01-13T16:14:45.470Z,12.37
2023-01-13T16:17:17.627Z,13.50
2023-01-13T16:19:45.973Z,12.60
2023-01-13T16:22:14.473Z,12.10
2023-01-13T16:24:43.202Z,9.87
2023-01-13T16:27:16.153Z,16.23
2023-01-13T16:29:46.554Z,15.03
2023-01-13T16:32:15.126Z,42.10
2023-01-13T16:34:43.528Z,23.83
2023-01-13T16:37:20.725Z,15.20
2023-01-13T16:39:49.310Z,13.43
2023-01-13T16:42:17.148Z,11.93
2023-01-13T16:44:48.277Z,10.97
2023-01-13T16:47:17.679Z,11.00
2023-01-13T16:49:45.995Z,12.63
2023-01-13T16:52:13.961Z,12.57
2023-01-13T16:54:41.894Z,14.03
2023-01-13T16:57:13.287Z,15.07
2023-01-13T16:59:41.256Z,17.40
2023-01-13T17:02:15.224Z,15.60
2023-01-13T17:04:43.964Z,14.20
2023-01-13T17:07:16.638Z,15.97
2023-01-13T17:09:44.566Z,30.33
2023-01-13T17:12:12.699Z,15.17
2023-01-13T17:14:43.199Z,13.90
2023-01-13T17:17:21.658Z,14.80
2023-01-13T17:19:49.683Z,14.73
2023-01-13T17:22:17.685Z,14.53
2023-01-13T17:24:46.114Z,16.00
2023-01-13T17:27:17.285Z,15.80
2023-01-13T17:29:45.337Z,16.43
2023-01-13T17:32:17.675Z,18.07
2023-01-13T17:34:46.110Z,19.57
2023-01-13T17:37:14.822Z,17.23
2023-01-13T17:39:44.255Z,15.10
2023-01-13T17:42:12.509Z,15.90
2023-01-13T17:44:40.574Z,16.07
2023-01-13T17:47:08.541Z,14.97
2023-01-13T17:49:37.745Z,14.80
2023-01-13T17:52:06.537Z,15.57
2023-01-13T17:54:34.368Z,13.60
2023-01-13T17:57:02.221Z,13.37
2023-01-13T17:59:30.124Z,13.70
2023-01-13T18:01:58.170Z,13.60
2023-01-13T18:04:28.071Z,14.40
2023-01-13T18:06:57.800Z,13.87
2023-01-13T18:09:26.235Z,13.53
2023-01-13T18:11:54.111Z,13.27
2023-01-13T18:14:22.451Z,12.30
2023-01-13T18:16:50.504Z,12.20
2023-01-13T18:19:35.831Z,13.13
2023-01-13T18:22:22.525Z,14.10
2023-01-13T18:25:08.060Z,12.33
2023-01-13T18:27:38.551Z,13.37
2023-01-13T18:30:07.570Z,13.90
2023-01-13T18:32:35.768Z,14.13
2023-01-13T18:35:07.297Z,16.33
2023-01-13T18:37:38.703Z,16.47
2023-01-13T18:40:09.232Z,17.20
2023-01-13T18:42:53.634Z,16.50
2023-01-13T18:45:24.209Z,16.27
2023-01-13T18:47:53.095Z,16.17
2023-01-13T18:50:21.617Z,15.80
2023-01-13T18:52:50.885Z,15.63
2023-01-13T18:55:18.971Z,15.30
2023-01-13T18:57:47.400Z,16.73
2023-01-13T19:00:19.055Z,15.83
2023-01-13T19:02:48.241Z,16.07
2023-01-13T19:05:16.198Z,14.90
2023-01-13T19:07:50.248Z,16.00
2023-01-13T19:10:20.255Z,15.93
2023-01-13T19:12:48.213Z,15.40
2023-01-13T19:15:16.960Z,17.83
2023-01-13T19:17:45.606Z,17.43
2023-01-13T19:20:13.698Z,19.40
2023-01-13T19:22:41.654Z,15.83
2023-01-13T19:25:09.634Z,14.30
2023-01-13T19:27:39.831Z,14.87
2023-01-13T19:30:09.225Z,14.70
2023-01-13T19:32:37.152Z,15.33
2023-01-13T19:35:05.614Z,15.43
2023-01-13T19:37:34.181Z,14.50
2023-01-13T19:40:04.629Z,15.97
2023-01-13T19:42:49.940Z,15.50
2023-01-13T19:45:28.201Z,15.47
2023-01-13T19:47:56.222Z,16.10
2023-01-13T19:50:24.151Z,15.80
2023-01-13T19:52:52.136Z,18.10
2023-01-13T19:55:20.411Z,16.47
2023-01-13T19:57:48.401Z,15.03
2023-01-13T20:00:20.777Z,17.27
2023-01-13T20:02:51.881Z,16.60
2023-01-13T20:05:25.667Z,15.97
2023-01-13T20:07:54.050Z,17.97
2023-01-13T20:10:23.740Z,16.83
2023-01-13T20:12:51.810Z,16.83
2023-01-13T20:15:19.781Z,15.10
2023-01-13T20:17:47.706Z,17.17
2023-01-13T20:20:18.550Z,17.23
2023-01-13T20:22:46.556Z,19.03
2023-01-13T20:25:16.937Z,18.20
2023-01-13T20:27:45.365Z,18.63
2023-01-13T20:30:14.532Z,17.40
2023-01-13T20:32:42.967Z,16.40
2023-01-13T20:35:11.952Z,16.37
2023-01-13T20:37:42.434Z,16.50
2023-01-13T20:40:14.284Z,16.30
2023-01-13T20:42:44.673Z,16.20
2023-01-13T20:45:17.319Z,17.60
2023-01-13T20:47:46.366Z,16.57
2023-01-13T20:50:14.544Z,17.27
2023-01-13T20:52:44.185Z,18.37
2023-01-13T20:55:12.573Z,16.97
2023-01-13T20:57:41.024Z,17.93
2023-01-13T21:00:11.203Z,17.33
2023-01-13T21:02:41.101Z,18.50
2023-01-13T21:05:09.571Z,18.20
2023-01-13T21:07:37.442Z,16.63
2023-01-13T21:10:07.173Z,17.90
2023-01-13T21:12:52.732Z,19.30
2023-01-13T21:15:21.836Z,17.03
2023-01-13T21:18:09.108Z,19.23
2023-01-13T21:20:38.679Z,17.93
2023-01-13T21:23:07.649Z,18.47
2023-01-13T21:25:39.677Z,19.97
2023-01-13T21:28:10.952Z,19.77
2023-01-13T21:30:39.201Z,20.03
2023-01-13T21:33:07.211Z,19.60
2023-01-13T21:35:38.728Z,22.17
2023-01-13T21:38:06.709Z,22.80
2023-01-13T21:40:35.939Z,17.00
2023-01-13T21:43:21.188Z,20.20
2023-01-13T21:46:06.682Z,20.23
2023-01-13T21:48:34.565Z,18.80
2023-01-13T21:51:02.482Z,17.87
2023-01-13T21:53:30.391Z,17.53
2023-01-13T21:55:59.628Z,18.47
2023-01-13T21:58:27.553Z,18.10
2023-01-13T22:00:55.585Z,17.53
2023-01-13T22:03:23.670Z,18.27
2023-01-13T22:05:55.563Z,18.03
2023-01-13T22:08:23.788Z,19.30
2023-01-13T22:10:57.584Z,17.30
2023-01-13T22:13:47.521Z,18.23
2023-01-13T22:16:16.259Z,17.53
2023-01-13T22:18:44.117Z,19.13
2023-01-13T22:21:11.997Z,16.50
2023-01-13T22:23:39.832Z,17.93
2023-01-13T22:26:09.006Z,18.60
2023-01-13T22:28:42.938Z,19.40
2023-01-13T22:31:12.241Z,19.93
2023-01-13T22:33:41.007Z,18.70
2023-01-13T22:36:09.986Z,19.03
2023-01-13T22:38:38.036Z,19.10
2023-01-13T22:41:08.176Z,20.53
2023-01-13T22:43:38.563Z,19.97
2023-01-13T22:46:08.631Z,17.80
2023-01-13T22:48:37.160Z,17.93
2023-01-13T22:51:06.543Z,17.57
2023-01-13T22:53:34.503Z,18.60
2023-01-13T22:56:02.407Z,16.40
2023-01-13T22:58:30.634Z,17.70
2023-01-13T23:01:10.681Z,23.57
2023-01-13T23:03:38.751Z,20.40
2023-01-13T23:06:07.186Z,20.23
2023-01-13T23:08:35.526Z,16.93
2023-01-13T23:11:04.392Z,18.97
2023-01-13T23:13:32.554Z,18.70
2023-01-13T23:16:03.869Z,19.07
2023-01-13T23:18:33.670Z,19.33
2023-01-13T23:21:05.020Z,19.97
2023-01-13T23:23:34.317Z,20.00
2023-01-13T23:26:02.895Z,18.97
2023-01-13T23:28:31.269Z,20.93
2023-01-13T23:30:59.221Z,20.80
2023-01-13T23:33:27.299Z,19.87
2023-01-13T23:36:01.148Z,20.60
2023-01-13T23:38:29.569Z,19.23
2023-01-13T23:40:57.745Z,19.27
2023-01-13T23:43:26.787Z,20.00
2023-01-13T23:46:03.268Z,20.43
2023-01-13T23:48:32.731Z,20.43
2023-01-13T23:51:03.937Z,20.90
2023-01-13T23:53:33.575Z,20.40
2023-01-13T23:56:02.248Z,20.20
2023-01-13T23:58:31.106Z,20.00
